AirNav   Bose ProFlight Series 2 Headset
 
 529 users online  

21TA Cypress Fairbanks Medical Center Heliport
Houston, Texas, USA

GOING TO HOUSTON?


FAA INFORMATION EFFECTIVE 02 JANUARY 2020

Location

FAA Identifier: 21TA
Lat/Long: 29-55-40.9400N 095-35-20.2100W
29-55.682333N 095-35.336833W
29.9280389,-95.5889472
(estimated)
Elevation: 125 ft. / 38 m (estimated)
Variation: 06E (1990)
From city: 18 miles NW of HOUSTON, TX
Time zone: UTC -6 (UTC -5 during Daylight Saving Time)
Zip code: 77065

Heliport Operations

Heliport use: Private use, MEDICAL USE.
Activation date: 08/1994
Control tower: no
ARTCC: HOUSTON CENTER
FSS: MONTGOMERY COUNTY FLIGHT SERVICE STATION
Attendance: CONTINUOUS
Wind indicator: yes
Segmented circle: no
Lights: FOR PERIMETER LGTS CALL 713-897-3100.

Heliport Communications

WX ASOS at DWH (8 nm N): PHONE 281-251-7853
WX ASOS at IAH (13 nm E): PHONE 281-443-6397
WX AWOS-3 at TME (18 nm SW): 119.525 (281-945-5451)
WX ASOS at SGR (19 nm S): 118.125 (281-242-7605)

Nearby radio navigation aids

VOR radial/distance  VOR name  Freq  Var
IAHr257/12.8HUMBLE VORTAC116.6005E
HUBr310/23.1HOBBY VOR/DME117.1005E
TNVr124/32.6NAVASOTA VOR/DME115.9008E

Heliport Services

Runway Information

Helipad H1

Dimensions: 45 x 45 ft. / 14 x 14 m
Surface: concrete
Runway edge lights: PERI
Latitude: 29-55.682333N
Longitude: 095-35.336833W
Elevation: 125.0 ft.
Traffic pattern: leftleft

Heliport Ownership and Management from official FAA records

Ownership: Privately-owned
Owner: CYPRESS FAIRBANKS MEDICAL CTR
10655 STEEPLETOP
HOUSTON, TX 77065
Phone (281) 897-3100
Manager: TERRY WHEELER
10655 STEEPLETOP
HOUSTON, TX 77065
Phone (281) 897-3100
ADDITIONAL CONTACT: RALPH FINNEGAN 281-897-8183

Additional Remarks

A52-H1 28 FT BLDG 130 FT NE.
FOR CD CTC HOUSTON ARTCC AT 281-230-5622.

Instrument Procedures

There are no published instrument procedures at 21TA.

Some nearby airports with instrument procedures:

KIWS - West Houston Airport (8 nm SW)
KDWH - David Wayne Hooks Memorial Airport (8 nm N)
KIAH - George Bush Intercontinental/Houston Airport (13 nm E)
KTME - Houston Executive Airport (18 nm SW)
KSGR - Sugar Land Regional Airport (19 nm S)
 
Loc | Ops | Rwys | IFR | FBO | Links
Com | Nav | Svcs | Stats | Notes
Area around 21TA (Cypress Fairbanks Medical Center Heliport)
 
Road maps at: MapQuest Bing Google
 
Aerial photo
No photo
 
Sectional chart

 
Airport distance calculator
Flying to Cypress Fairbanks Medical Center Heliport? Find the distance to fly.

From to 21TA

Sunrise and sunset
Times for 26-Jan-2020
 Local
(UTC-6)
 Zulu
(UTC)
Morning civil twilight06:5112:51
Sunrise07:1713:17
Sunset17:5323:53
Evening civil twilight18:1900:19

Current date and time
Zulu (UTC)  26-Jan-2020 10:19:17
Local (UTC-6)  26-Jan-2020 04:19:17
 
METAR
KDWH 
9nm N 
260953Z AUTO 12004KT SCT009 OVC018 14/13 A2996 RMK AO2 RAE02B19E29 SLP144 P0001 T01440133 $
KIAH 
12nm E 
260953Z 14003KT 7SM -RA BKN004 OVC012 15/14 A2996 RMK AO2 SLP145 P0006 T01500139
KTME 
18nm SW 
260955Z AUTO 00000KT 5SM BR OVC008 16/16 A2997 RMK AO2
KSGR 
19nm S 
260953Z AUTO 04003KT 10SM OVC010 17/16 A2996 RMK AO2 RAE02 SLP147 P0000 T01670161
TAF
KIAH 
12nm E 
260703Z 2607/2712 11004KT P6SM VCSH OVC017 FM260900 VRB04KT 4SM -SHRA BR SCT003 OVC006 FM261600 29006KT P6SM VCSH SCT007 OVC015 FM262000 30008KT P6SM BKN035 FM270100 VRB04KT P6SM SCT250
KSGR 
19nm S 
260705Z 2607/2706 11003KT P6SM VCSH BKN035 OVC060 FM260900 15006KT 4SM -SHRA SCT003 OVC007 FM261500 24005KT 5SM BR VCSH SCT007 OVC015 FM262000 30007KT P6SM BKN035 FM270100 VRB03KT P6SM SCT250
NOTAMs
Click for the latest NOTAMs
NOTAMs are issued by the DoD/FAA and will open in a separate window not controlled by AirNav.

 

 
 

Would you like to see your business listed on this page?

 If your business provides an interesting product or service to pilots, flight crews, aircraft, or users of the Cypress Fairbanks Medical Center Heliport, you should consider listing it here.  To start the listing process, click on the button below
 
Add a business
 

Other Pages about Cypress Fairbanks Medical Center Heliport

Update a link
 
Copyright © AirNav, LLC. All rights reserved. Privacy Policy  Contact